createdAt,value
2019-03-30T00:01:16.011Z,37.33
2019-03-30T00:04:05.600Z,33.70
2019-03-30T00:06:55.683Z,34.97
2019-03-30T00:09:45.979Z,35.37
2019-03-30T00:12:35.541Z,35.93
2019-03-30T00:15:26.270Z,34.87
2019-03-30T00:18:16.612Z,33.47
2019-03-30T00:21:06.948Z,35.47
2019-03-30T00:23:57.178Z,36.70
2019-03-30T00:26:46.389Z,34.10
2019-03-30T00:29:36.835Z,35.77
2019-03-30T00:32:26.907Z,39.60
2019-03-30T00:35:16.142Z,37.40
2019-03-30T00:38:05.655Z,38.97
2019-03-30T00:40:56.159Z,34.97
2019-03-30T00:43:46.587Z,38.70
2019-03-30T00:46:37.800Z,35.80
2019-03-30T00:49:27.212Z,36.60
2019-03-30T00:52:17.221Z,35.10
2019-03-30T00:55:06.967Z,34.83
2019-03-30T00:57:57.514Z,36.13
2019-03-30T01:00:46.792Z,35.03
2019-03-30T01:03:37.175Z,36.97
2019-03-30T01:06:27.593Z,34.43
2019-03-30T01:09:17.926Z,37.20
2019-03-30T01:12:07.154Z,36.03
2019-03-30T01:14:56.959Z,36.33
2019-03-30T01:17:47.155Z,33.47
2019-03-30T01:20:36.846Z,35.47
2019-03-30T01:23:26.857Z,39.13
2019-03-30T01:26:16.987Z,36.60
2019-03-30T01:29:07.451Z,39.27
2019-03-30T01:31:57.068Z,35.87
2019-03-30T01:34:47.368Z,37.77
2019-03-30T01:37:36.892Z,39.17
2019-03-30T01:40:27.196Z,37.83
2019-03-30T01:43:16.826Z,34.50
2019-03-30T01:46:07.098Z,41.00
2019-03-30T01:48:57.159Z,35.83
2019-03-30T01:51:47.721Z,40.37
2019-03-30T01:54:37.875Z,41.90
2019-03-30T01:57:27.882Z,37.60
2019-03-30T02:00:18.522Z,39.40
2019-03-30T02:03:07.987Z,35.20
2019-03-30T02:05:57.374Z,39.43
2019-03-30T02:08:47.686Z,35.87
2019-03-30T02:11:37.191Z,37.80
2019-03-30T02:14:27.279Z,33.40
2019-03-30T02:17:20.157Z,33.10
2019-03-30T02:20:16.156Z,38.13
2019-03-30T02:23:07.655Z,38.70
2019-03-30T02:25:57.934Z,40.13
2019-03-30T02:28:49.079Z,36.93
2019-03-30T02:31:38.352Z,34.83
2019-03-30T02:34:28.466Z,35.20
2019-03-30T02:37:17.861Z,33.07
2019-03-30T02:40:09.516Z,36.00
2019-03-30T02:42:59.328Z,37.70
2019-03-30T02:45:49.319Z,34.27
2019-03-30T02:48:38.907Z,33.50
2019-03-30T02:51:28.902Z,31.87
2019-03-30T02:54:19.195Z,32.67
2019-03-30T02:57:09.669Z,33.57
2019-03-30T02:59:59.942Z,31.13
2019-03-30T03:02:49.442Z,36.87
2019-03-30T03:05:39.563Z,34.30
2019-03-30T03:08:29.536Z,31.63
2019-03-30T03:11:19.855Z,38.20
2019-03-30T03:14:09.459Z,35.87
2019-03-30T03:16:58.691Z,40.80
2019-03-30T03:19:49.047Z,39.70
2019-03-30T03:22:38.421Z,38.47
2019-03-30T03:25:28.040Z,29.67
2019-03-30T03:28:18.293Z,34.50
2019-03-30T03:31:08.484Z,33.63
2019-03-30T03:33:59.142Z,29.87
2019-03-30T03:36:49.341Z,29.40
2019-03-30T03:39:40.366Z,32.10
2019-03-30T03:42:30.687Z,32.97
2019-03-30T03:45:20.335Z,36.10
2019-03-30T03:48:09.794Z,29.60
2019-03-30T03:51:03.971Z,31.30
2019-03-30T03:53:53.844Z,36.33
2019-03-30T03:56:45.918Z,31.03
2019-03-30T03:59:37.441Z,30.33
2019-03-30T04:02:30.568Z,32.60
2019-03-30T04:05:23.243Z,32.50
2019-03-30T04:08:14.521Z,34.60
2019-03-30T04:11:05.440Z,30.30
2019-03-30T04:13:57.462Z,33.27
2019-03-30T04:16:47.638Z,25.90
2019-03-30T04:19:37.815Z,33.30
2019-03-30T04:22:27.704Z,31.70
2019-03-30T04:25:17.274Z,30.97
2019-03-30T04:28:07.027Z,31.83
2019-03-30T04:30:57.359Z,28.10
2019-03-30T04:33:47.715Z,35.17
2019-03-30T04:36:37.394Z,29.73
2019-03-30T04:39:27.719Z,29.13
2019-03-30T04:42:17.003Z,26.20
2019-03-30T04:45:09.159Z,31.77
2019-03-30T04:47:59.513Z,34.77
2019-03-30T04:50:49.442Z,30.30
2019-03-30T04:53:39.710Z,26.17
2019-03-30T04:56:29.980Z,32.47
2019-03-30T04:59:19.783Z,31.27
2019-03-30T05:02:09.911Z,27.87
2019-03-30T05:05:00.350Z,25.70
2019-03-30T05:07:49.639Z,29.53
2019-03-30T05:10:39.723Z,31.73
2019-03-30T05:13:28.918Z,27.93
2019-03-30T05:16:19.192Z,31.97
2019-03-30T05:19:09.140Z,30.97
2019-03-30T05:22:11.487Z,27.23
2019-03-30T05:24:50.665Z,29.17
2019-03-30T05:27:40.301Z,28.03
2019-03-30T05:30:30.500Z,27.83
2019-03-30T05:33:20.568Z,29.20
2019-03-30T05:36:10.578Z,32.00
2019-03-30T05:39:00.199Z,29.40
2019-03-30T05:41:50.146Z,27.10
2019-03-30T05:44:41.064Z,30.17
2019-03-30T05:47:31.096Z,27.90
2019-03-30T05:50:20.630Z,29.00
2019-03-30T05:53:10.653Z,26.90
2019-03-30T05:56:00.968Z,30.90
2019-03-30T05:58:51.032Z,26.77
2019-03-30T06:01:41.263Z,27.07
2019-03-30T06:04:31.441Z,26.40
2019-03-30T06:07:21.062Z,27.00
2019-03-30T06:10:11.459Z,30.90
2019-03-30T06:13:01.791Z,25.70
2019-03-30T06:15:50.971Z,30.30
2019-03-30T06:18:44.039Z,26.37
2019-03-30T06:21:34.565Z,27.93
2019-03-30T06:24:24.967Z,27.50
2019-03-30T06:27:15.216Z,24.70
2019-03-30T06:30:15.651Z,27.13
2019-03-30T06:33:04.836Z,25.20
2019-03-30T06:35:54.442Z,26.60
2019-03-30T06:38:44.496Z,23.97
2019-03-30T06:41:34.586Z,27.20
2019-03-30T06:44:24.231Z,27.47
2019-03-30T06:47:14.439Z,24.17
2019-03-30T06:50:04.267Z,27.23
2019-03-30T06:52:58.103Z,26.27
2019-03-30T06:55:45.210Z,24.13
2019-03-30T06:58:35.522Z,23.60
2019-03-30T07:01:26.856Z,24.40
2019-03-30T07:04:17.367Z,24.07
2019-03-30T07:07:09.836Z,22.20
2019-03-30T07:10:02.943Z,24.20
2019-03-30T07:12:54.391Z,22.30
2019-03-30T07:15:46.892Z,23.70
2019-03-30T07:18:37.178Z,20.50
2019-03-30T07:21:27.524Z,19.63
2019-03-30T07:24:17.922Z,20.77
2019-03-30T07:27:08.012Z,21.30
2019-03-30T07:29:58.071Z,18.60
2019-03-30T07:32:49.474Z,22.23
2019-03-30T07:35:39.701Z,22.73
2019-03-30T07:38:30.483Z,18.83
2019-03-30T07:41:20.809Z,24.00
2019-03-30T07:44:11.352Z,18.47
2019-03-30T07:47:01.066Z,18.97
2019-03-30T07:49:51.377Z,18.20
2019-03-30T07:52:41.885Z,19.50
2019-03-30T07:55:32.273Z,21.00
2019-03-30T07:58:21.787Z,17.27
2019-03-30T08:01:12.094Z,17.13
2019-03-30T08:04:02.126Z,17.73
2019-03-30T08:06:52.015Z,15.90
2019-03-30T08:09:41.717Z,16.20
2019-03-30T08:12:31.210Z,15.30
2019-03-30T08:15:20.852Z,16.20
2019-03-30T08:18:12.738Z,16.57
2019-03-30T08:21:03.273Z,15.70
2019-03-30T08:23:53.527Z,15.27
2019-03-30T08:26:44.165Z,15.23
2019-03-30T08:29:34.022Z,15.60
2019-03-30T08:32:24.364Z,14.97
2019-03-30T08:35:15.455Z,13.63
2019-03-30T08:38:05.924Z,14.07
2019-03-30T08:40:56.319Z,14.40
2019-03-30T08:43:45.802Z,14.60
2019-03-30T08:46:36.029Z,14.00
2019-03-30T08:49:26.595Z,14.10
2019-03-30T08:52:16.602Z,14.00
2019-03-30T08:55:08.732Z,14.10
2019-03-30T08:57:58.989Z,13.90
2019-03-30T09:00:51.574Z,13.53
2019-03-30T09:03:41.773Z,14.10
2019-03-30T09:06:31.800Z,14.87
2019-03-30T09:09:21.430Z,14.20
2019-03-30T09:12:11.531Z,14.20
2019-03-30T09:15:01.468Z,14.10
2019-03-30T09:17:52.256Z,13.57
2019-03-30T09:20:42.508Z,13.80
2019-03-30T09:23:32.611Z,13.37
2019-03-30T09:26:22.758Z,13.57
2019-03-30T09:29:12.751Z,13.80
2019-03-30T09:32:13.642Z,13.13
2019-03-30T09:34:54.259Z,13.87
2019-03-30T09:37:44.512Z,13.10
2019-03-30T09:40:34.071Z,13.23
2019-03-30T09:43:24.550Z,13.20
2019-03-30T09:46:16.486Z,12.87
2019-03-30T09:49:06.424Z,13.27
2019-03-30T09:51:57.007Z,12.87
2019-03-30T09:54:47.477Z,13.50
2019-03-30T09:57:38.074Z,12.37
2019-03-30T10:00:28.567Z,15.20
2019-03-30T10:03:18.675Z,12.63
2019-03-30T10:06:08.972Z,12.00
2019-03-30T10:08:59.548Z,12.65
2019-03-30T10:11:49.628Z,12.20
2019-03-30T10:14:40.539Z,12.98
2019-03-30T10:17:30.460Z,13.28
2019-03-30T10:20:20.699Z,12.30
2019-03-30T10:23:11.667Z,12.40
2019-03-30T10:26:02.108Z,12.00
2019-03-30T10:28:52.028Z,12.47
2019-03-30T10:31:42.831Z,12.43
2019-03-30T10:34:32.966Z,13.40
2019-03-30T10:37:23.688Z,12.80
2019-03-30T10:40:14.290Z,13.22
2019-03-30T10:43:04.480Z,13.48
2019-03-30T10:45:55.329Z,12.15
2019-03-30T10:48:45.771Z,12.50
2019-03-30T10:51:37.784Z,12.37
2019-03-30T10:54:28.553Z,13.03
2019-03-30T10:57:19.324Z,12.90
2019-03-30T11:00:12.058Z,12.63
2019-03-30T11:03:02.596Z,13.15
2019-03-30T11:05:53.068Z,20.65
2019-03-30T11:08:43.070Z,14.33
2019-03-30T11:11:33.905Z,16.00
2019-03-30T11:14:24.753Z,15.05
2019-03-30T11:17:14.986Z,13.13
2019-03-30T11:20:05.185Z,14.25
2019-03-30T11:22:54.690Z,14.20
2019-03-30T11:25:45.488Z,15.13
2019-03-30T11:28:36.997Z,17.63
2019-03-30T11:31:26.261Z,20.20
2019-03-30T11:34:16.776Z,25.43
2019-03-30T11:37:06.387Z,20.77
2019-03-30T11:39:57.675Z,23.60
2019-03-30T11:42:47.448Z,24.00
2019-03-30T11:45:37.549Z,28.93
2019-03-30T11:48:27.879Z,20.07
2019-03-30T11:51:18.092Z,21.13
2019-03-30T11:54:08.149Z,22.13
2019-03-30T11:56:57.736Z,26.80
2019-03-30T11:59:47.205Z,24.03
2019-03-30T12:02:37.388Z,21.63
2019-03-30T12:05:26.861Z,23.37
2019-03-30T12:08:16.839Z,20.10
2019-03-30T12:11:07.152Z,21.20
2019-03-30T12:13:57.291Z,22.40
2019-03-30T12:16:47.659Z,17.50
2019-03-30T12:19:38.207Z,17.17
2019-03-30T12:22:28.676Z,16.47
2019-03-30T12:25:18.843Z,15.17
2019-03-30T12:28:08.327Z,16.13
2019-03-30T12:30:58.363Z,22.00
2019-03-30T12:33:48.379Z,17.30
2019-03-30T12:36:38.344Z,16.57
2019-03-30T12:39:28.692Z,18.00
2019-03-30T12:42:18.982Z,16.90
2019-03-30T12:45:13.103Z,15.97
2019-03-30T12:48:03.103Z,17.40
2019-03-30T12:50:53.484Z,20.00
2019-03-30T12:53:50.004Z,16.63
2019-03-30T12:56:34.792Z,16.10
2019-03-30T12:59:24.979Z,22.00
2019-03-30T13:02:15.262Z,15.97
2019-03-30T13:07:56.545Z,18.57
2019-03-30T13:10:46.528Z,14.90
2019-03-30T13:13:36.955Z,16.70
2019-03-30T13:16:26.987Z,17.17
2019-03-30T13:19:17.215Z,19.17
2019-03-30T13:22:07.395Z,26.73
2019-03-30T13:24:57.640Z,15.77
2019-03-30T13:27:47.855Z,18.90
2019-03-30T13:30:37.869Z,17.73
2019-03-30T13:33:28.382Z,18.63
2019-03-30T13:36:20.230Z,19.83
2019-03-30T13:39:10.233Z,17.77
2019-03-30T13:41:59.613Z,21.13
2019-03-30T13:44:49.099Z,18.10
2019-03-30T13:47:39.447Z,17.77
2019-03-30T13:50:31.123Z,16.67
2019-03-30T13:53:22.100Z,15.87
2019-03-30T13:56:17.314Z,15.20
2019-03-30T13:59:03.596Z,17.30
2019-03-30T14:01:53.737Z,16.17
2019-03-30T14:04:46.352Z,16.47
2019-03-30T14:07:39.447Z,16.60
2019-03-30T14:10:29.622Z,17.00
2019-03-30T14:13:19.090Z,17.33
2019-03-30T14:16:08.666Z,16.43
2019-03-30T14:18:58.988Z,15.97
2019-03-30T14:21:48.716Z,18.00
2019-03-30T14:24:39.046Z,17.03
2019-03-30T14:27:28.799Z,17.13
2019-03-30T14:30:19.240Z,19.20
2019-03-30T14:33:09.537Z,16.20
2019-03-30T14:35:59.181Z,15.90
2019-03-30T14:38:49.378Z,16.23
2019-03-30T14:41:39.093Z,16.50
2019-03-30T14:44:28.839Z,19.23
2019-03-30T14:47:18.815Z,17.07
2019-03-30T14:50:09.185Z,18.93
2019-03-30T14:52:58.681Z,16.80
2019-03-30T14:55:50.045Z,16.87
2019-03-30T14:58:40.633Z,18.37
2019-03-30T15:01:30.904Z,17.60
2019-03-30T15:04:21.210Z,22.10
2019-03-30T15:07:11.396Z,25.50
2019-03-30T15:10:01.616Z,27.30
2019-03-30T15:12:52.593Z,22.57
2019-03-30T15:15:42.627Z,18.37
2019-03-30T15:18:32.376Z,17.20
2019-03-30T15:21:22.776Z,18.37
2019-03-30T15:24:12.944Z,20.50
2019-03-30T15:27:03.020Z,20.70
2019-03-30T15:29:53.368Z,18.53
2019-03-30T15:32:43.385Z,18.77
2019-03-30T15:35:33.523Z,23.40
2019-03-30T15:38:23.879Z,19.33
2019-03-30T15:41:13.183Z,21.53
2019-03-30T15:44:03.272Z,23.90
2019-03-30T15:46:55.426Z,21.67
2019-03-30T15:49:46.294Z,19.03
2019-03-30T15:52:35.807Z,21.30
2019-03-30T15:55:24.959Z,22.73
2019-03-30T15:58:14.395Z,32.70
2019-03-30T16:01:04.623Z,20.83
2019-03-30T16:03:54.614Z,28.37
2019-03-30T16:06:46.623Z,20.73
2019-03-30T16:09:37.305Z,23.27
2019-03-30T16:12:27.507Z,22.40
2019-03-30T16:15:17.786Z,20.80
2019-03-30T16:18:07.956Z,22.27
2019-03-30T16:20:58.115Z,19.67
2019-03-30T16:23:48.127Z,22.80
2019-03-30T16:26:42.184Z,26.60
2019-03-30T16:29:29.693Z,19.43
2019-03-30T16:32:19.015Z,22.73
2019-03-30T16:35:09.178Z,20.40
2019-03-30T16:37:58.607Z,22.53
2019-03-30T16:40:48.697Z,22.37
2019-03-30T16:43:38.388Z,21.27
2019-03-30T16:46:28.473Z,22.60
2019-03-30T16:49:17.699Z,22.00
2019-03-30T16:52:07.176Z,22.87
2019-03-30T16:54:57.215Z,20.20
2019-03-30T16:57:48.945Z,24.70
2019-03-30T17:00:55.126Z,26.30
2019-03-30T17:03:30.620Z,20.47
2019-03-30T17:06:20.125Z,22.87
2019-03-30T17:09:09.855Z,26.10
2019-03-30T17:11:59.667Z,23.03
2019-03-30T17:14:49.984Z,22.30
2019-03-30T17:17:40.039Z,22.97
2019-03-30T17:20:30.818Z,23.63
2019-03-30T17:23:20.271Z,21.30
2019-03-30T17:26:09.530Z,28.97
2019-03-30T17:28:59.974Z,27.50
2019-03-30T17:31:50.484Z,30.83
2019-03-30T17:34:40.772Z,29.20
2019-03-30T17:37:31.048Z,36.60
2019-03-30T17:40:21.180Z,33.83
2019-03-30T17:43:10.680Z,38.07
2019-03-30T17:46:00.143Z,31.93
2019-03-30T17:48:50.619Z,41.23
2019-03-30T17:51:40.853Z,32.57
2019-03-30T17:54:30.978Z,27.50
2019-03-30T17:57:20.829Z,28.10
2019-03-30T18:00:13.582Z,30.43
2019-03-30T18:03:04.140Z,31.43
2019-03-30T18:05:53.640Z,29.43
2019-03-30T18:08:43.335Z,33.67
2019-03-30T18:11:33.354Z,35.20
2019-03-30T18:14:22.928Z,30.50
2019-03-30T18:17:12.508Z,30.23
2019-03-30T18:20:01.675Z,34.80
2019-03-30T18:22:52.052Z,32.60
2019-03-30T18:25:42.252Z,33.77
2019-03-30T18:28:32.435Z,30.17
2019-03-30T18:31:22.627Z,30.17
2019-03-30T18:34:11.931Z,34.00
2019-03-30T18:37:02.536Z,38.63
2019-03-30T18:39:53.191Z,38.03
2019-03-30T18:42:42.791Z,33.20
2019-03-30T18:45:33.395Z,34.50
2019-03-30T18:48:23.435Z,35.23
2019-03-30T18:51:13.781Z,54.43
2019-03-30T18:54:04.224Z,44.13
2019-03-30T18:56:54.420Z,45.87
2019-03-30T18:59:44.423Z,47.03
2019-03-30T19:02:36.186Z,44.67
2019-03-30T19:05:25.610Z,51.77
2019-03-30T19:08:15.372Z,54.47
2019-03-30T19:11:05.800Z,49.10
2019-03-30T19:13:55.595Z,47.93
2019-03-30T19:16:45.403Z,57.03
2019-03-30T19:19:35.062Z,50.70
2019-03-30T19:22:26.458Z,52.27
2019-03-30T19:25:17.449Z,49.63
2019-03-30T19:28:12.600Z,50.40
2019-03-30T19:31:05.066Z,43.77
2019-03-30T19:33:57.348Z,48.40
2019-03-30T19:36:49.127Z,50.80
2019-03-30T19:39:41.715Z,50.97
2019-03-30T19:42:32.156Z,44.80
2019-03-30T19:45:22.349Z,38.17
2019-03-30T19:48:12.433Z,34.50
2019-03-30T19:51:02.426Z,34.57
2019-03-30T19:53:52.492Z,32.63
2019-03-30T19:56:42.815Z,34.20
2019-03-30T19:59:32.071Z,42.83
2019-03-30T20:02:22.383Z,34.97
2019-03-30T20:05:12.713Z,36.77
2019-03-30T20:08:11.943Z,33.00
2019-03-30T20:10:54.340Z,27.63
2019-03-30T20:13:44.393Z,28.93
2019-03-30T20:16:34.568Z,33.27
2019-03-30T20:19:25.210Z,36.53
2019-03-30T20:22:16.258Z,38.83
2019-03-30T20:25:07.687Z,32.10
2019-03-30T20:27:57.338Z,34.20
2019-03-30T20:30:47.452Z,30.50
2019-03-30T20:33:37.579Z,28.47
2019-03-30T20:36:27.046Z,31.20
2019-03-30T20:39:17.495Z,28.43
2019-03-30T20:42:07.623Z,31.27
2019-03-30T20:44:57.885Z,35.77
2019-03-30T20:47:47.443Z,34.27
2019-03-30T20:50:37.837Z,31.50
2019-03-30T20:53:27.802Z,28.43
2019-03-30T20:56:17.990Z,30.17
2019-03-30T20:59:07.815Z,36.07
2019-03-30T21:01:57.237Z,34.20
2019-03-30T21:04:47.318Z,34.50
2019-03-30T21:07:37.380Z,36.00
2019-03-30T21:10:26.896Z,30.33
2019-03-30T21:13:17.175Z,37.73
2019-03-30T21:16:06.869Z,35.40
2019-03-30T21:18:56.468Z,34.60
2019-03-30T21:21:46.595Z,35.23
2019-03-30T21:24:36.663Z,33.93
2019-03-30T21:27:28.127Z,34.33
2019-03-30T21:30:17.792Z,33.67
2019-03-30T21:33:07.489Z,30.67
2019-03-30T21:35:57.783Z,34.27
2019-03-30T21:38:47.951Z,36.03
2019-03-30T21:41:38.182Z,34.93
2019-03-30T21:44:27.712Z,33.70
2019-03-30T21:47:17.956Z,36.20
2019-03-30T21:50:09.904Z,42.00
2019-03-30T21:53:00.063Z,35.43
2019-03-30T21:55:50.239Z,33.97
2019-03-30T21:58:40.210Z,34.93
2019-03-30T22:01:30.156Z,37.63
2019-03-30T22:04:19.655Z,36.10
2019-03-30T22:07:09.753Z,37.10
2019-03-30T22:09:59.634Z,31.80
2019-03-30T22:12:49.448Z,36.90
2019-03-30T22:15:39.812Z,36.67
2019-03-30T22:18:29.932Z,34.43
2019-03-30T22:21:19.459Z,33.17
2019-03-30T22:24:09.500Z,34.63
2019-03-30T22:26:59.471Z,28.47
2019-03-30T22:29:49.033Z,28.10
2019-03-30T22:32:38.579Z,28.93
2019-03-30T22:35:28.082Z,29.03
2019-03-30T22:38:18.542Z,29.70
2019-03-30T22:41:08.807Z,29.27
2019-03-30T22:43:58.266Z,27.00
2019-03-30T22:46:48.348Z,33.10
2019-03-30T22:49:38.048Z,28.53
2019-03-30T22:52:28.140Z,27.63
2019-03-30T22:55:17.527Z,28.87
2019-03-30T22:58:07.982Z,27.17
2019-03-30T23:01:06.871Z,28.40
2019-03-30T23:03:56.924Z,27.20
2019-03-30T23:06:47.190Z,28.17
2019-03-30T23:09:37.204Z,24.40
2019-03-30T23:12:27.693Z,27.63
2019-03-30T23:15:17.979Z,24.60
2019-03-30T23:18:08.496Z,23.40
2019-03-30T23:20:57.855Z,26.37
2019-03-30T23:23:47.890Z,27.90
2019-03-30T23:26:38.117Z,27.33
2019-03-30T23:29:30.631Z,27.03
2019-03-30T23:32:20.955Z,27.00
2019-03-30T23:35:11.463Z,27.90
2019-03-30T23:38:00.746Z,36.77
2019-03-30T23:40:50.701Z,25.77
2019-03-30T23:43:40.675Z,29.20
2019-03-30T23:46:31.423Z,24.60
2019-03-30T23:49:21.814Z,26.50
2019-03-30T23:52:11.364Z,26.90
2019-03-30T23:55:01.687Z,25.73
2019-03-30T23:57:51.161Z,25.60
